createdAt,value
2023-01-21T00:01:06.946Z,47.15
2023-01-21T00:03:34.254Z,45.53
2023-01-21T00:06:01.494Z,47.80
2023-01-21T00:08:28.471Z,43.05
2023-01-21T00:10:55.645Z,41.97
2023-01-21T00:13:22.882Z,44.35
2023-01-21T00:15:49.938Z,37.95
2023-01-21T00:18:16.879Z,45.60
2023-01-21T00:20:46.169Z,41.08
2023-01-21T00:23:13.226Z,30.30
2023-01-21T00:25:40.038Z,31.58
2023-01-21T00:28:07.078Z,40.83
2023-01-21T00:30:34.100Z,38.58
2023-01-21T00:33:00.852Z,44.50
2023-01-21T00:35:27.793Z,38.75
2023-01-21T00:37:54.734Z,41.15
2023-01-21T00:40:21.855Z,38.20
2023-01-21T00:42:48.980Z,38.35
2023-01-21T00:45:15.919Z,37.22
2023-01-21T00:47:42.788Z,37.20
2023-01-21T00:50:10.823Z,37.65
2023-01-21T00:52:38.819Z,35.05
2023-01-21T00:55:06.773Z,35.47
2023-01-21T00:57:33.697Z,34.38
2023-01-21T01:00:00.787Z,35.05
2023-01-21T01:02:27.608Z,36.67
2023-01-21T01:04:54.556Z,35.03
2023-01-21T01:07:21.391Z,40.58
2023-01-21T01:09:48.169Z,42.67
2023-01-21T01:12:15.302Z,43.47
2023-01-21T01:14:42.067Z,35.90
2023-01-21T01:17:09.322Z,43.50
2023-01-21T01:19:36.169Z,38.63
2023-01-21T01:22:02.957Z,41.22
2023-01-21T01:24:30.062Z,36.58
2023-01-21T01:26:56.851Z,40.83
2023-01-21T01:29:23.612Z,46.42
2023-01-21T01:31:50.605Z,42.88
2023-01-21T01:34:17.505Z,41.20
2023-01-21T01:36:44.345Z,47.05
2023-01-21T01:39:11.531Z,49.17
2023-01-21T01:41:38.354Z,38.58
2023-01-21T01:44:55.484Z,47.38
2023-01-21T01:47:28.352Z,44.63
2023-01-21T01:49:55.199Z,38.67
2023-01-21T01:52:23.503Z,34.08
2023-01-21T01:54:54.058Z,40.08
2023-01-21T01:57:24.380Z,34.08
2023-01-21T01:59:51.790Z,44.33
2023-01-21T02:02:20.333Z,38.92
2023-01-21T02:05:03.693Z,34.05
2023-01-21T02:07:39.510Z,36.55
2023-01-21T02:10:12.536Z,41.22
2023-01-21T02:12:43.077Z,31.08
2023-01-21T02:15:10.711Z,42.03
2023-01-21T02:18:08.932Z,40.33
2023-01-21T02:20:55.683Z,42.80
2023-01-21T02:24:18.504Z,35.95
2023-01-21T02:27:43.696Z,33.67
2023-01-21T02:30:35.384Z,41.97
2023-01-21T02:33:33.149Z,39.03
2023-01-21T02:36:17.957Z,42.28
2023-01-21T02:39:25.245Z,47.38
2023-01-21T02:42:07.865Z,41.92
2023-01-21T02:44:54.602Z,43.45
2023-01-21T02:47:40.595Z,42.00
2023-01-21T02:50:27.403Z,43.60
2023-01-21T02:52:59.465Z,38.85
2023-01-21T02:55:34.516Z,33.65
2023-01-21T02:58:07.731Z,37.25
2023-01-21T03:00:51.191Z,42.30
2023-01-21T03:03:41.520Z,41.30
2023-01-21T03:06:22.502Z,37.33
2023-01-21T03:08:56.325Z,40.58
2023-01-21T03:11:23.850Z,40.92
2023-01-21T03:14:57.291Z,35.15
2023-01-21T03:17:34.799Z,39.20
2023-01-21T03:20:26.644Z,40.35
2023-01-21T03:23:02.651Z,40.05
2023-01-21T03:25:33.082Z,40.47
2023-01-21T03:28:04.056Z,41.30
2023-01-21T03:30:34.050Z,37.20
2023-01-21T03:33:02.494Z,34.72
2023-01-21T03:35:38.738Z,35.17
2023-01-21T03:38:26.907Z,33.80
2023-01-21T03:41:29.102Z,48.70
2023-01-21T03:43:55.894Z,35.97
2023-01-21T03:46:38.805Z,41.17
2023-01-21T03:49:29.730Z,40.80
2023-01-21T03:51:59.875Z,37.08
2023-01-21T03:54:27.047Z,37.33
2023-01-21T03:56:53.935Z,35.58
2023-01-21T03:59:20.747Z,32.45
2023-01-21T04:01:47.500Z,37.40
2023-01-21T04:04:14.621Z,36.45
2023-01-21T04:06:41.437Z,37.20
2023-01-21T04:09:08.267Z,45.95
2023-01-21T04:11:35.123Z,35.30
2023-01-21T04:14:02.002Z,37.63
2023-01-21T04:16:29.331Z,45.88
2023-01-21T04:18:56.494Z,44.42
2023-01-21T04:21:23.315Z,39.15
2023-01-21T04:23:50.088Z,38.60
2023-01-21T04:26:16.870Z,45.25
2023-01-21T04:28:43.826Z,38.10
2023-01-21T04:31:10.736Z,34.83
2023-01-21T04:33:37.584Z,37.25
2023-01-21T04:36:04.803Z,42.30
2023-01-21T04:38:31.969Z,44.10
2023-01-21T04:40:58.744Z,43.35
2023-01-21T04:43:25.576Z,41.17
2023-01-21T04:45:52.658Z,34.80
2023-01-21T04:48:19.480Z,37.78
2023-01-21T04:50:46.921Z,36.35
2023-01-21T04:53:14.252Z,35.45
2023-01-21T04:55:41.057Z,44.05
2023-01-21T04:58:08.190Z,39.97
2023-01-21T05:00:35.074Z,39.85
2023-01-21T05:03:01.916Z,42.10
2023-01-21T05:05:28.683Z,35.50
2023-01-21T05:07:55.832Z,44.00
2023-01-21T05:10:22.686Z,37.00
2023-01-21T05:12:49.805Z,34.00
2023-01-21T05:15:16.984Z,31.70
2023-01-21T05:17:43.788Z,39.25
2023-01-21T05:20:11.633Z,34.83
2023-01-21T05:22:38.667Z,41.50
2023-01-21T05:25:06.484Z,39.72
2023-01-21T05:27:33.394Z,34.65
2023-01-21T05:30:00.188Z,33.28
2023-01-21T05:32:26.989Z,36.40
2023-01-21T05:34:53.792Z,38.38
2023-01-21T05:37:20.820Z,43.90
2023-01-21T05:39:47.662Z,37.35
2023-01-21T05:42:14.557Z,40.97
2023-01-21T05:44:41.426Z,42.58
2023-01-21T05:47:08.983Z,40.20
2023-01-21T05:49:35.983Z,43.50
2023-01-21T05:52:02.753Z,37.03
2023-01-21T05:54:29.740Z,33.67
2023-01-21T05:56:56.744Z,38.95
2023-01-21T05:59:23.843Z,35.63
2023-01-21T06:01:50.640Z,36.55
2023-01-21T06:04:17.462Z,38.78
2023-01-21T06:06:44.356Z,37.75
2023-01-21T06:09:11.204Z,39.60
2023-01-21T06:11:38.327Z,42.63
2023-01-21T06:14:05.104Z,35.72
2023-01-21T06:16:31.903Z,35.95
2023-01-21T06:18:59.161Z,28.65
2023-01-21T06:21:25.942Z,36.55
2023-01-21T06:23:53.068Z,37.75
2023-01-21T06:26:19.931Z,39.10
2023-01-21T06:28:46.772Z,38.80
2023-01-21T06:31:13.621Z,37.08
2023-01-21T06:33:40.551Z,42.95
2023-01-21T06:36:07.998Z,43.47
2023-01-21T06:38:36.297Z,37.63
2023-01-21T06:41:04.178Z,33.63
2023-01-21T06:43:31.172Z,36.90
2023-01-21T06:45:58.130Z,37.65
2023-01-21T06:48:25.191Z,32.90
2023-01-21T06:50:52.089Z,33.72
2023-01-21T06:53:18.929Z,41.65
2023-01-21T06:55:47.566Z,41.78
2023-01-21T06:58:15.002Z,35.65
2023-01-21T07:00:42.416Z,40.15
2023-01-21T07:03:09.318Z,38.58
2023-01-21T07:05:36.148Z,42.10
2023-01-21T07:08:03.411Z,42.22
2023-01-21T07:10:30.263Z,37.20
2023-01-21T07:12:57.281Z,39.88
2023-01-21T07:15:25.047Z,41.08
2023-01-21T07:17:54.321Z,42.55
2023-01-21T07:20:22.752Z,43.13
2023-01-21T07:22:49.658Z,38.30
2023-01-21T07:25:17.025Z,51.85
2023-01-21T07:27:44.038Z,43.58
2023-01-21T07:30:19.324Z,37.95
2023-01-21T07:32:47.284Z,47.72
2023-01-21T07:35:15.323Z,41.40
2023-01-21T07:37:42.483Z,36.97
2023-01-21T07:40:10.049Z,37.00
2023-01-21T07:42:36.865Z,41.10
2023-01-21T07:45:04.131Z,42.85
2023-01-21T07:47:31.061Z,40.15
2023-01-21T07:49:57.859Z,58.22
2023-01-21T07:52:24.705Z,50.97
2023-01-21T07:54:51.484Z,48.55
2023-01-21T07:57:18.301Z,44.35
2023-01-21T07:59:45.189Z,47.03
2023-01-21T08:02:13.120Z,45.08
2023-01-21T08:04:39.973Z,45.83
2023-01-21T08:07:12.966Z,49.33
2023-01-21T08:09:40.458Z,46.42
2023-01-21T08:12:08.725Z,50.95
2023-01-21T08:14:35.896Z,50.60
2023-01-21T08:17:02.708Z,47.25
2023-01-21T08:19:29.649Z,59.13
2023-01-21T08:21:56.473Z,64.72
2023-01-21T08:24:23.224Z,74.43
2023-01-21T08:26:50.040Z,68.82
2023-01-21T08:29:17.073Z,69.93
2023-01-21T08:31:43.913Z,70.75
2023-01-21T08:34:10.996Z,64.68
2023-01-21T08:36:39.164Z,74.50
2023-01-21T08:39:06.677Z,72.95
2023-01-21T08:41:33.845Z,81.15
2023-01-21T08:44:00.754Z,65.15
2023-01-21T08:46:27.583Z,80.07
2023-01-21T08:48:54.465Z,71.57
2023-01-21T08:51:21.524Z,72.03
2023-01-21T08:53:52.236Z,77.80
2023-01-21T08:56:19.597Z,71.72
2023-01-21T08:58:46.635Z,70.70
2023-01-21T09:01:18.287Z,77.03
2023-01-21T09:03:45.476Z,61.67
2023-01-21T09:06:12.569Z,63.10
2023-01-21T09:08:39.524Z,59.83
2023-01-21T09:11:07.257Z,64.30
2023-01-21T09:13:38.054Z,65.18
2023-01-21T09:16:17.680Z,70.93
2023-01-21T09:18:45.133Z,67.22
2023-01-21T09:21:12.639Z,79.47
2023-01-21T09:23:40.565Z,75.95
2023-01-21T09:26:14.619Z,77.35
2023-01-21T09:28:43.592Z,66.78
2023-01-21T09:31:15.611Z,76.97
2023-01-21T09:33:46.315Z,84.80
2023-01-21T09:36:16.732Z,100.70
2023-01-21T09:38:45.685Z,86.57
2023-01-21T09:41:29.846Z,82.50
2023-01-21T09:44:13.640Z,62.22
2023-01-21T09:47:07.442Z,71.30
2023-01-21T09:49:47.552Z,71.38
2023-01-21T09:52:33.573Z,66.75
2023-01-21T09:55:02.667Z,78.03
2023-01-21T09:57:41.050Z,67.00
2023-01-21T10:00:54.589Z,67.32
2023-01-21T10:03:42.462Z,68.20
2023-01-21T10:06:33.658Z,61.42
2023-01-21T10:09:38.727Z,70.70
2023-01-21T10:12:42.889Z,73.32
2023-01-21T10:15:56.318Z,81.00
2023-01-21T10:18:30.695Z,80.53
2023-01-21T10:23:47.568Z,72.47
2023-01-21T10:26:15.155Z,82.70
2023-01-21T10:28:51.024Z,73.93
2023-01-21T10:31:25.193Z,80.50
2023-01-21T10:33:52.946Z,77.50
2023-01-21T10:36:47.200Z,80.70
2023-01-21T10:40:11.088Z,78.28
2023-01-21T10:42:53.902Z,88.85
2023-01-21T10:45:44.662Z,96.97
2023-01-21T10:48:18.045Z,105.05
2023-01-21T10:50:56.898Z,96.60
2023-01-21T10:53:53.202Z,101.88
2023-01-21T10:56:27.406Z,96.32
2023-01-21T10:59:24.408Z,94.60
2023-01-21T11:02:22.485Z,96.43
2023-01-21T11:04:50.061Z,110.32
2023-01-21T11:07:21.660Z,99.63
2023-01-21T11:09:48.939Z,102.47
2023-01-21T11:12:21.859Z,90.10
2023-01-21T11:14:58.144Z,92.25
2023-01-21T11:17:36.166Z,90.20
2023-01-21T11:20:16.073Z,87.47
2023-01-21T11:22:45.802Z,90.13
2023-01-21T11:25:37.846Z,85.18
2023-01-21T11:28:05.931Z,91.45
2023-01-21T11:30:50.734Z,75.70
2023-01-21T11:33:27.050Z,76.93
2023-01-21T11:35:55.590Z,84.72
2023-01-21T11:38:29.639Z,89.15
2023-01-21T11:41:22.519Z,83.40
2023-01-21T11:43:56.487Z,80.57
2023-01-21T11:46:34.618Z,81.70
2023-01-21T11:49:24.445Z,77.10
2023-01-21T11:52:06.900Z,80.88
2023-01-21T11:54:40.566Z,74.55
2023-01-21T11:57:22.843Z,74.00
2023-01-21T11:59:50.577Z,73.60
2023-01-21T12:02:48.555Z,78.38
2023-01-21T12:05:43.308Z,77.55
2023-01-21T12:08:24.367Z,71.30
2023-01-21T12:10:55.988Z,65.13
2023-01-21T12:13:40.836Z,60.70
2023-01-21T12:16:19.571Z,61.70
2023-01-21T12:19:23.726Z,57.17
2023-01-21T12:22:15.080Z,57.38
2023-01-21T12:25:14.391Z,62.83
2023-01-21T12:28:03.700Z,61.70
2023-01-21T12:30:48.636Z,58.88
2023-01-21T12:33:30.758Z,62.78
2023-01-21T12:36:38.261Z,62.35
2023-01-21T12:39:22.776Z,64.47
2023-01-21T12:42:02.554Z,60.83
2023-01-21T12:44:58.762Z,62.00
2023-01-21T12:47:50.882Z,53.30
2023-01-21T12:50:28.636Z,56.67
2023-01-21T12:53:21.162Z,59.53
2023-01-21T12:56:00.169Z,53.72
2023-01-21T12:58:33.665Z,59.83
2023-01-21T13:01:11.059Z,58.22
2023-01-21T13:03:50.738Z,56.42
2023-01-21T13:06:29.709Z,54.88
2023-01-21T13:09:34.316Z,55.58
2023-01-21T13:12:19.563Z,50.17
2023-01-21T13:15:00.106Z,50.90
2023-01-21T13:17:34.614Z,70.40
2023-01-21T13:20:14.098Z,68.20
2023-01-21T13:22:59.879Z,62.55
2023-01-21T13:25:46.835Z,74.55
2023-01-21T13:28:38.304Z,70.93
2023-01-21T13:31:14.830Z,77.15
2023-01-21T13:33:59.820Z,75.28
2023-01-21T13:36:43.168Z,78.13
2023-01-21T13:39:34.647Z,85.60
2023-01-21T13:42:16.991Z,76.57
2023-01-21T13:45:23.679Z,243.60
2023-01-21T13:48:12.048Z,111.68
2023-01-21T13:51:05.108Z,154.73
2023-01-21T13:54:06.220Z,96.63
2023-01-21T13:57:08.128Z,85.90
2023-01-21T13:59:53.667Z,129.32
2023-01-21T14:03:09.358Z,134.55
2023-01-21T14:05:47.159Z,130.25
2023-01-21T14:08:30.304Z,157.95
2023-01-21T14:11:32.097Z,193.68
2023-01-21T14:14:24.397Z,165.70
2023-01-21T14:17:15.192Z,179.57
2023-01-21T14:20:06.527Z,224.20
2023-01-21T14:22:55.124Z,198.73
2023-01-21T14:25:48.523Z,272.35
2023-01-21T14:28:28.557Z,230.77
2023-01-21T14:31:22.959Z,217.88
2023-01-21T14:33:59.611Z,229.52
2023-01-21T14:36:58.757Z,256.15
2023-01-21T14:39:41.105Z,327.38
2023-01-21T14:42:16.494Z,230.85
2023-01-21T14:44:49.370Z,224.98
2023-01-21T14:47:16.281Z,316.10
2023-01-21T14:49:50.401Z,240.98
2023-01-21T14:52:21.845Z,378.70
2023-01-21T14:54:49.195Z,251.25
2023-01-21T14:57:41.061Z,99.50
2023-01-21T15:00:24.463Z,237.50
2023-01-21T15:03:21.615Z,137.73
2023-01-21T15:05:54.232Z,98.30
2023-01-21T15:08:45.575Z,193.35
2023-01-21T15:11:24.206Z,270.00
2023-01-21T15:14:14.386Z,104.72
2023-01-21T15:16:44.239Z,240.90
2023-01-21T15:19:16.895Z,175.50
2023-01-21T15:21:45.624Z,341.00
2023-01-21T15:24:20.323Z,192.32
2023-01-21T15:30:27.184Z,95.28
2023-01-21T15:32:54.413Z,116.50
2023-01-21T15:35:30.080Z,283.73
2023-01-21T15:38:02.431Z,72.70
2023-01-21T15:40:41.356Z,131.43
2023-01-21T15:43:33.606Z,254.32
2023-01-21T15:47:08.642Z,149.05
2023-01-21T15:49:38.060Z,106.68
2023-01-21T15:52:30.747Z,139.73
2023-01-21T15:55:25.558Z,274.30
2023-01-21T15:58:43.565Z,121.95
2023-01-21T16:01:31.291Z,154.68
2023-01-21T16:04:16.139Z,213.70
2023-01-21T16:07:14.245Z,148.02
2023-01-21T16:10:21.701Z,116.90
2023-01-21T16:13:09.239Z,172.00
2023-01-21T16:16:14.857Z,115.53
2023-01-21T16:18:59.638Z,91.10
2023-01-21T16:21:40.371Z,150.23
2023-01-21T16:24:20.371Z,346.95
2023-01-21T16:26:47.305Z,181.38
2023-01-21T16:29:15.697Z,273.95
2023-01-21T16:32:00.635Z,338.58
2023-01-21T16:34:30.553Z,270.45
2023-01-21T16:36:58.192Z,195.48
2023-01-21T16:39:25.256Z,194.18
2023-01-21T16:42:04.576Z,253.93
2023-01-21T16:44:36.078Z,174.57
2023-01-21T16:47:03.750Z,356.90
2023-01-21T16:49:30.632Z,433.77
2023-01-21T16:52:00.994Z,552.10
2023-01-21T16:54:33.186Z,178.70
2023-01-21T16:57:02.812Z,203.82
2023-01-21T16:59:40.834Z,97.20
2023-01-21T17:02:25.112Z,175.85
2023-01-21T17:04:51.979Z,75.60
2023-01-21T17:07:44.688Z,398.75
2023-01-21T17:10:32.971Z,131.85
2023-01-21T17:13:04.034Z,454.88
2023-01-21T17:15:36.313Z,361.33
2023-01-21T17:18:06.545Z,115.22
2023-01-21T17:20:45.559Z,153.90
2023-01-21T17:23:22.395Z,355.52
2023-01-21T17:25:57.624Z,278.25
2023-01-21T17:28:39.052Z,185.35
2023-01-21T17:31:29.915Z,163.48
2023-01-21T17:34:20.335Z,184.15
2023-01-21T17:36:50.626Z,175.05
2023-01-21T17:39:48.651Z,144.25
2023-01-21T17:42:18.955Z,174.07
2023-01-21T17:44:48.910Z,130.98
2023-01-21T17:47:27.143Z,290.80
2023-01-21T17:50:03.679Z,272.35
2023-01-21T17:52:30.884Z,109.72
2023-01-21T17:55:26.647Z,119.47
2023-01-21T17:57:54.525Z,372.30
2023-01-21T18:00:45.813Z,144.07
2023-01-21T18:03:13.200Z,105.88
2023-01-21T18:05:41.481Z,156.88
2023-01-21T18:08:15.444Z,191.07
2023-01-21T18:10:43.420Z,111.80
2023-01-21T18:13:18.669Z,140.77
2023-01-21T18:15:46.679Z,147.25
2023-01-21T18:18:21.083Z,126.93
2023-01-21T18:20:48.080Z,143.45
2023-01-21T18:23:15.397Z,128.88
2023-01-21T18:25:42.956Z,97.97
2023-01-21T18:28:26.279Z,91.75
2023-01-21T18:30:57.342Z,87.00
2023-01-21T18:33:25.167Z,153.02
2023-01-21T18:35:53.282Z,123.05
2023-01-21T18:38:31.135Z,100.30
2023-01-21T18:40:59.059Z,98.50
2023-01-21T18:43:26.263Z,170.07
2023-01-21T18:45:54.558Z,321.38
2023-01-21T18:48:28.801Z,218.40
2023-01-21T18:50:56.091Z,215.27
2023-01-21T18:53:23.065Z,103.82
2023-01-21T18:55:55.609Z,129.15
2023-01-21T18:58:22.593Z,98.88
2023-01-21T19:00:49.675Z,111.05
2023-01-21T19:03:17.509Z,176.00
2023-01-21T19:05:47.765Z,298.52
2023-01-21T19:08:28.115Z,124.32
2023-01-21T19:10:55.678Z,267.02
2023-01-21T19:13:22.493Z,442.73
2023-01-21T19:15:49.708Z,152.95
2023-01-21T19:18:17.080Z,144.90
2023-01-21T19:20:44.137Z,146.23
2023-01-21T19:23:15.840Z,154.85
2023-01-21T19:25:48.504Z,369.90
2023-01-21T19:28:15.376Z,259.02
2023-01-21T19:30:45.274Z,230.50
2023-01-21T19:33:13.097Z,192.88
2023-01-21T19:35:44.441Z,123.40
2023-01-21T19:38:16.357Z,289.02
2023-01-21T19:40:43.477Z,336.13
2023-01-21T19:43:15.012Z,157.40
2023-01-21T19:45:42.316Z,156.73
2023-01-21T19:48:13.217Z,222.57
2023-01-21T19:50:40.640Z,137.75
2023-01-21T19:53:09.196Z,176.32
2023-01-21T19:55:37.241Z,159.80
2023-01-21T19:58:14.474Z,180.45
2023-01-21T20:00:41.600Z,111.07
2023-01-21T20:03:13.027Z,99.18
2023-01-21T20:05:40.568Z,125.82
2023-01-21T20:08:12.813Z,104.80
2023-01-21T20:10:40.013Z,121.70
2023-01-21T20:13:12.259Z,74.75
2023-01-21T20:15:41.849Z,73.28
2023-01-21T20:18:19.546Z,95.93
2023-01-21T20:20:46.455Z,101.38
2023-01-21T20:23:16.104Z,106.53
2023-01-21T20:25:44.909Z,118.72
2023-01-21T20:28:23.373Z,98.68
2023-01-21T20:30:52.281Z,56.95
2023-01-21T20:33:22.480Z,68.00
2023-01-21T20:35:53.848Z,89.43
2023-01-21T20:38:37.120Z,124.65
2023-01-21T20:41:06.034Z,113.80
2023-01-21T20:43:33.085Z,83.97
2023-01-21T20:46:04.065Z,92.72
2023-01-21T20:48:35.817Z,150.65
2023-01-21T20:51:03.573Z,179.60
2023-01-21T20:53:31.175Z,63.35
2023-01-21T20:56:01.392Z,109.25
2023-01-21T20:58:28.655Z,79.15
2023-01-21T21:00:55.825Z,106.53
2023-01-21T21:03:22.932Z,85.88
2023-01-21T21:05:49.847Z,120.40
2023-01-21T21:08:22.102Z,94.95
2023-01-21T21:10:50.977Z,175.45
2023-01-21T21:13:18.644Z,194.80
2023-01-21T21:15:46.765Z,249.35
2023-01-21T21:18:14.703Z,143.52
2023-01-21T21:20:42.454Z,208.25
2023-01-21T21:23:16.011Z,116.40
2023-01-21T21:25:48.975Z,211.35
2023-01-21T21:28:18.329Z,119.90
2023-01-21T21:30:45.773Z,108.40
2023-01-21T21:33:19.290Z,137.25
2023-01-21T21:35:47.050Z,180.77
2023-01-21T21:38:22.054Z,318.58
2023-01-21T21:40:53.275Z,159.70
2023-01-21T21:43:35.510Z,177.65
2023-01-21T21:46:28.348Z,106.70
2023-01-21T21:48:55.162Z,101.07
2023-01-21T21:51:23.110Z,81.18
2023-01-21T21:53:50.872Z,103.07
2023-01-21T21:56:21.356Z,192.48
2023-01-21T21:58:49.479Z,240.73
2023-01-21T22:01:23.580Z,146.98
2023-01-21T22:03:51.152Z,79.40
2023-01-21T22:06:21.809Z,94.90
2023-01-21T22:08:49.380Z,94.45
2023-01-21T22:11:19.816Z,106.70
2023-01-21T22:13:51.839Z,83.78
2023-01-21T22:16:28.280Z,86.05
2023-01-21T22:18:57.203Z,82.28
2023-01-21T22:21:28.278Z,74.60
2023-01-21T22:23:55.597Z,82.95
2023-01-21T22:26:25.643Z,82.70
2023-01-21T22:28:53.652Z,85.93
2023-01-21T22:31:27.486Z,68.13
2023-01-21T22:33:55.647Z,58.10
2023-01-21T22:36:25.653Z,72.93
2023-01-21T22:38:53.055Z,72.47
2023-01-21T22:41:22.769Z,83.43
2023-01-21T22:43:51.231Z,78.90
2023-01-21T22:46:30.515Z,78.68
2023-01-21T22:48:58.827Z,66.45
2023-01-21T22:51:26.437Z,86.65
2023-01-21T22:53:53.825Z,89.80
2023-01-21T22:56:39.830Z,76.85
2023-01-21T22:59:11.105Z,78.97
2023-01-21T23:01:38.504Z,80.18
2023-01-21T23:04:05.636Z,74.72
2023-01-21T23:06:32.557Z,78.10
2023-01-21T23:08:59.589Z,103.30
2023-01-21T23:11:26.489Z,97.68
2023-01-21T23:13:55.435Z,99.30
2023-01-21T23:16:22.951Z,98.60
2023-01-21T23:18:49.913Z,102.15
2023-01-21T23:21:22.669Z,94.68
2023-01-21T23:23:50.410Z,87.63
2023-01-21T23:26:19.408Z,84.35
2023-01-21T23:28:47.360Z,84.78
2023-01-21T23:31:17.761Z,71.88
2023-01-21T23:33:48.528Z,73.90
2023-01-21T23:36:15.347Z,71.05
2023-01-21T23:38:42.803Z,65.40
2023-01-21T23:41:17.173Z,77.57
2023-01-21T23:43:44.157Z,77.55
2023-01-21T23:46:16.729Z,89.32
2023-01-21T23:48:43.730Z,74.43
2023-01-21T23:51:13.853Z,81.80
2023-01-21T23:53:40.810Z,77.50
2023-01-21T23:56:15.089Z,79.20
2023-01-21T23:58:42.025Z,83.43
